Latest Weather Observations for Bathurst Airport

IDN60801

Issued at 3:04 pm EDT Monday 26 January 2015 (issued every 30 minutes, with the page automatically refreshed every 10 minutes)

About weather observations | Map of weather stations | Latest weather observations for NSW | Other Formats
Station Details ID: 063291 Name: BATHURST AIRPORT AWS Lat: -33.41 Lon: 149.65 Height: 744.5 m
Data from the previous 72 hours. | See also: Recent months for locations in New South Wales
Date/Time
EDT
Temp
°C
App
Temp
°C
Dew
Point
Rel
Hum
%
Delta-T
°C
Wind Press
QNH
hPa
Press
MSL
hPa
Rain
since 9 am
mm
Dir
 
Spd
km/h
Gust
km/h
Spd
kts
Gust
kts
26/03:00pm 20.8 18.5 14.2 66 4.0 E 19 22 10 12 1013.5 1009.6 0.0
26/02:30pm 20.6 18.0 13.8 65 4.1 ENE 20 26 11 14 1013.6 1009.7 0.0
26/02:00pm 21.2 18.4 14.4 65 4.1 ENE 22 28 12 15 1013.7 1009.8 0.0
26/01:30pm 20.5 18.1 14.4 68 3.7 ENE 20 28 11 15 1013.9 1010.0 0.0
26/01:00pm 21.0 19.0 13.9 64 4.3 E 17 24 9 13 1013.9 1010.0 0.0
26/12:30pm 20.4 16.8 14.1 67 3.8 ENE 26 33 14 18 1013.8 1009.9 0.0
26/12:00pm 20.8 17.8 14.7 68 3.7 E 24 32 13 17 1014.0 1010.1 0.0
26/11:30am 20.2 17.4 14.3 69 3.5 ENE 22 30 12 16 1014.1 1010.2 0.0
26/11:00am 20.6 18.2 14.3 67 3.8 E 20 28 11 15 1013.9 1010.0 0.0
26/10:30am 21.1 19.0 14.7 67 3.9 ENE 19 24 10 13 1014.0 1010.1 0.0
26/10:00am 20.7 18.7 15.0 70 3.5 ENE 19 24 10 13 1014.1 1010.2 0.0
26/09:30am 19.4 16.6 14.2 72 3.1 ENE 22 30 12 16 1014.1 1010.2 0.0
26/09:00am 18.4 19.2 13.7 74 2.8 W 2 7 1 4 1014.2 1010.3 0.0
26/08:30am 17.3 17.4 14.0 81 1.9 WNW 6 9 3 5 1014.1 1010.2 0.0
26/08:00am 15.6 15.7 14.0 90 0.9 SW 6 7 3 4 1013.6 1009.7 0.0
26/07:30am 13.5 13.0 12.6 94 0.5 SW 7 7 4 4 1013.6 1009.7 0.0
26/07:00am 12.7 13.1 12.4 98 0.2 SE 2 9 1 5 1013.2 1009.3 0.0
26/06:30am 12.1 12.3 11.9 99 0.1 SE 2 7 1 4 1012.8 1008.9 0.0
26/06:00am 11.7 10.9 10.9 95 0.4 SW 6 9 3 5 1012.6 1008.7 0.0
26/05:30am 12.4 11.6 11.1 92 0.7 SW 6 9 3 5 1012.2 1008.3 0.0
26/05:00am 12.6 12.0 11.8 95 0.4 NE 6 9 3 5 1011.9 1008.0 0.0
26/04:30am 12.2 11.3 11.3 94 0.5 NNE 7 9 4 5 1011.8 1007.8 0.0
26/04:00am 11.5 11.2 8.7 83 1.4 CALM 0 6 0 3 1011.6 1007.7 0.0
26/03:30am 11.7 9.7 8.7 82 1.6 ENE 9 11 5 6 1011.2 1007.3 0.0
26/02:30am 14.0 11.9 9.6 75 2.4 SSE 11 15 6 8 1011.3 1007.4 0.0
26/02:00am 13.4 13.5 10.0 80 1.8 CALM 0 0 0 0 1011.8 1007.8 0.0
26/01:30am 14.2 13.5 8.4 68 3.0 ENE 2 7 1 4 1011.5 1007.6 0.0
26/01:00am 17.7 17.3 9.8 60 4.3 E 2 6 1 3 1011.4 1007.5 0.0
26/12:30am 14.3 12.7 8.0 66 3.3 SE 6 11 3 6 1011.6 1007.7 0.0
26/12:00am 17.5 15.9 10.1 62 4.1 E 9 9 5 5 1011.6 1007.7 0.0
 
Date/Time
EDT
Temp
°C
App
Temp
°C
Dew
Point
Rel
Hum
%
Delta-T
°C
Wind Press
QNH
hPa
Press
MSL
hPa
Rain
since 9 am
mm
Dir
 
Spd
km/h
Gust
km/h
Spd
kts
Gust
kts
25/11:30pm 16.0 16.0 9.7 66 3.4 CALM 0 0 0 0 1011.5 1007.6 0.0
25/11:00pm 18.4 16.6 9.5 56 4.9 SSW 9 11 5 6 1011.4 1007.5 0.0
25/10:00pm 20.4 17.8 9.3 49 6.1 SSW 13 15 7 8 1011.5 1007.6 0.0
25/09:30pm 20.5 18.3 9.4 49 6.1 SSW 11 11 6 6 1011.3 1007.4 0.0
25/09:00pm 21.3 19.5 9.5 47 6.6 SSW 9 11 5 6 1010.9 1007.0 0.0
25/08:30pm 21.8 19.2 9.3 45 6.9 SW 13 17 7 9 1010.5 1006.5 0.0
25/08:00pm 23.4 20.1 9.4 41 7.9 SW 17 20 9 11 1010.0 1006.1 0.0
25/07:30pm 25.3 20.8 8.7 35 9.3 SW 22 28 12 15 1009.7 1005.8 0.0
25/07:00pm 26.3 21.6 9.2 34 9.7 SW 24 32 13 17 1009.4 1005.4 0.0
25/06:30pm 27.2 22.3 10.0 34 9.9 SW 26 33 14 18 1008.9 1004.9 0.0
25/05:30pm 28.1 23.9 11.2 35 10.0 SW 24 32 13 17 1008.3 1004.4 0.0
25/05:00pm 28.8 23.0 9.5 30 11.1 W 30 37 16 20 1008.2 1004.2 0.0
25/04:30pm 28.4 22.7 11.0 34 10.2 WSW 32 41 17 22 1008.1 1004.1 0.0
25/04:06pm 28.7 23.7 10.8 33 10.5 WSW 28 46 15 25 1008.1 1004.1 0.0
25/04:00pm 28.9 24.7 12.3 36 10.0 W 26 39 14 21 1008.2 1004.2 0.0
25/03:30pm 29.3 24.4 12.7 36 10.1 WSW 30 37 16 20 1008.1 1004.1 0.0
25/03:00pm 28.9 24.2 13.2 38 9.6 WSW 30 39 16 21 1008.2 1004.2 0.0
25/02:30pm 28.5 24.3 13.6 40 9.1 WSW 28 43 15 23 1008.1 1004.1 0.0
25/02:00pm 27.8 24.3 15.5 47 7.8 WSW 28 37 15 20 1008.1 1004.1 0.0
25/01:30pm 27.9 23.6 15.5 46 7.8 SW 32 43 17 23 1008.0 1004.0 0.0
25/01:14pm 28.4 24.7 15.0 44 8.4 WSW 28 54 15 29 1008.0 1004.0 0.0
25/01:00pm 27.0 23.7 15.1 48 7.4 W 26 39 14 21 1008.1 1004.1 0.0
25/12:30pm 27.3 26.2 17.2 54 6.5 WNW 19 30 10 16 1008.1 1004.1 0.0
25/12:00pm 27.1 25.4 17.3 55 6.3 WNW 22 33 12 18 1008.3 1004.4 0.0
25/11:30am 26.3 25.7 17.6 58 5.6 W 17 26 9 14 1008.4 1004.5 0.0
25/11:00am 25.2 25.3 18.4 66 4.4 SW 15 24 8 13 1008.6 1004.7 0.0
25/10:30am 23.1 24.4 17.1 69 3.8 WNW 6 15 3 8 1008.9 1004.9 0.0
25/10:00am 22.1 22.6 16.6 71 3.5 WNW 9 15 5 8 1008.9 1004.9 0.0
25/09:30am 21.7 23.1 18.7 83 1.9 WNW 9 15 5 8 1008.7 1004.8 0.0
25/09:00am 20.3 20.8 17.5 84 1.8 N 11 15 6 8 1008.7 1004.8 7.6
25/08:30am 19.0 19.6 17.7 92 0.8 N 11 13 6 7 1008.6 1004.7 7.6
25/08:00am 17.9 18.7 17.3 96 0.4 N 9 9 5 5 1008.7 1004.8 7.6
25/07:30am 16.6 18.8 16.6 100 0.0 CALM 0 0 0 0 1008.4 1004.5 7.6
25/07:00am 15.6 17.4 15.6 100 0.0 CALM 0 0 0 0 1008.3 1004.4 7.6
25/06:54am 15.3 16.7 15.3 100 0.0 ENE 2 6 1 3 1008.2 1004.2 7.6
25/06:39am 14.8 15.2 14.8 100 0.0 ENE 6 7 3 4 1008.0 1004.0 7.6
25/06:30am 15.4 17.2 15.4 100 0.0 CALM 0 6 0 3 1007.9 1003.9 7.6
25/06:00am 15.5 16.0 15.5 100 0.0 ENE 7 7 4 4 1007.7 1003.7 7.6
25/05:30am 14.9 16.1 14.9 100 0.0 NE 2 9 1 5 1007.6 1003.6 7.6
25/05:00am 15.0 15.3 15.0 100 0.0 ENE 7 9 4 5 1007.6 1003.6 7.6
25/04:54am 15.4 15.5 15.4 100 0.0 ENE 9 9 5 5 1007.6 1003.6 7.6
25/04:30am 15.7 17.6 15.7 100 0.0 CALM 0 0 0 0 1007.7 1003.7 7.6
25/04:27am 15.8 17.7 15.8 100 0.0 CALM 0 0 0 0 1007.7 1003.7 7.6
25/04:13am 16.1 18.1 16.1 100 0.0 CALM 0 0 0 0 1007.9 1003.9 7.6
25/04:00am 16.2 18.3 16.2 100 0.0 CALM 0 0 0 0 1007.8 1003.8 7.6
25/03:50am 16.1 18.1 16.1 100 0.0 CALM 0 0 0 0 1007.8 1003.8 7.6
25/03:30am 16.7 19.0 16.7 100 0.0 CALM 0 0 0 0 1007.7 1003.7 7.6
25/03:23am 16.7 19.0 16.7 100 0.0 CALM 0 0 0 0 1007.8 1003.8 7.6
25/03:00am 16.6 18.1 16.6 100 0.0 E 4 7 2 4 1007.8 1003.8 7.6
25/02:38am 16.7 18.2 16.7 100 0.0 E 4 7 2 4 1008.0 1004.0 7.6
25/02:30am 16.5 18.7 16.5 100 0.0 CALM 0 0 0 0 1008.0 1004.0 7.6
25/02:00am 16.8 19.1 16.8 100 0.0 CALM 0 0 0 0 1008.4 1004.5 7.6
25/01:30am 16.9 19.3 16.9 100 0.0 CALM 0 0 0 0 1008.7 1004.8 7.6
25/01:00am 17.1 19.5 17.1 100 0.0 CALM 0 0 0 0 1008.9 1004.9 7.6
25/12:30am 17.0 17.7 17.0 100 0.0 ENE 9 11 5 6 1009.0 1005.0 7.6
25/12:00am 17.4 19.6 17.4 100 0.0 W 2 7 1 4 1009.6 1005.7 7.6
 
Date/Time
EDT
Temp
°C
App
Temp
°C
Dew
Point
Rel
Hum
%
Delta-T
°C
Wind Press
QNH
hPa
Press
MSL
hPa
Rain
since 9 am
mm
Dir
 
Spd
km/h
Gust
km/h
Spd
kts
Gust
kts
24/11:30pm 17.5 18.8 17.5 100 0.0 WNW 7 9 4 5 1009.6 1005.7 7.6
24/11:00pm 17.7 18.6 17.5 99 0.1 NW 9 13 5 7 1009.6 1005.7 7.6
24/10:30pm 18.1 19.6 17.5 96 0.4 NW 6 9 3 5 1009.6 1005.7 7.6
24/10:00pm 18.2 19.0 17.4 95 0.5 ENE 9 13 5 7 1009.4 1005.4 7.6
24/09:30pm 18.6 18.9 17.9 96 0.4 E 13 20 7 11 1009.7 1005.8 7.6
24/09:00pm 18.5 18.9 18.2 98 0.2 ESE 13 19 7 10 1009.9 1006.0 7.6
24/08:30pm 18.5 19.3 18.2 98 0.2 S 11 19 6 10 1010.5 1006.5 7.2
24/08:00pm 18.9 19.7 18.2 96 0.4 SSW 11 19 6 10 1010.5 1006.5 6.4
24/07:30pm 19.3 19.7 18.1 93 0.8 S 13 17 7 9 1009.7 1005.8 6.0
24/07:00pm 19.8 19.3 17.9 89 1.2 SW 17 24 9 13 1009.7 1005.8 5.8
24/06:55pm 20.0 21.3 18.5 91 1.0 WSW 9 19 5 10 1009.6 1005.7 5.8
24/06:30pm 19.1 18.9 18.6 97 0.3 NW 17 28 9 15 1009.2 1005.2 4.4
24/06:19pm 19.6 17.7 17.6 88 1.3 NW 24 30 13 16 1008.9 1004.9 0.6
24/06:00pm 23.1 22.7 15.2 61 4.9 NE 11 19 6 10 1008.0 1004.0 0.0
24/05:30pm 23.9 23.2 15.4 59 5.3 ENE 13 17 7 9 1007.3 1003.4 0.0
24/05:00pm 23.9 23.3 15.7 60 5.1 ENE 13 19 7 10 1007.5 1003.5 0.0
24/04:30pm 24.0 23.2 15.0 57 5.6 E 13 17 7 9 1008.0 1004.0 0.0
24/04:00pm 25.4 25.8 16.3 57 5.8 ENE 9 17 5 9 1008.2 1004.2 0.0
24/03:30pm 23.5 22.6 15.8 62 4.8 NW 15 24 8 13 1009.0 1005.0 0.0
24/03:00pm 23.4 21.5 15.2 60 5.1 NNW 19 24 10 13 1008.4 1004.5 0.0
24/02:30pm 22.3 20.1 15.9 67 4.0 W 22 30 12 16 1008.4 1004.5 0.0
24/02:00pm 26.4 24.1 15.8 52 6.7 WNW 22 35 12 19 1008.7 1004.8 0.0
24/01:30pm 29.3 28.4 15.8 44 8.6 NW 15 26 8 14 1008.9 1004.9 0.0
24/01:00pm 28.6 29.3 15.5 45 8.3 NW 6 17 3 9 1009.4 1005.4 0.0
24/12:30pm 29.1 29.7 15.2 42 8.8 N 6 13 3 7 1009.7 1005.8 0.0
24/12:00pm 28.6 29.1 16.5 48 7.8 NW 9 17 5 9 1010.3 1006.3 0.0
24/11:30am 27.9 29.6 16.2 49 7.5 ENE 2 7 1 4 1010.7 1006.8 0.0
24/11:00am 26.3 27.2 16.5 54 6.2 NNW 7 17 4 9 1011.0 1007.1 0.0
24/10:30am 25.2 26.2 16.3 57 5.6 NNW 6 11 3 6 1011.1 1007.2 0.0
24/10:00am 24.0 23.5 16.8 64 4.6 W 15 20 8 11 1011.4 1007.5 0.0
24/09:30am 23.9 23.3 16.7 64 4.6 W 15 20 8 11 1011.4 1007.5 0.0
24/09:00am 22.6 23.3 16.2 67 4.0 N 7 11 4 6 1011.6 1007.7 0.0
24/08:30am 21.0 21.7 16.2 74 3.0 NNE 7 9 4 5 1011.5 1007.6 0.0
24/08:00am 19.1 21.4 16.7 86 1.5 CALM 0 0 0 0 1011.6 1007.7 0.0
24/07:30am 17.1 19.5 16.9 99 0.1 CALM 0 0 0 0 1011.4 1007.5 0.0
24/07:00am 16.7 18.9 16.5 99 0.1 CALM 0 0 0 0 1011.2 1007.3 0.0
24/06:30am 16.1 18.1 16.1 100 0.0 CALM 0 0 0 0 1011.0 1007.1 0.0
24/06:00am 15.3 16.1 14.8 97 0.3 E 4 7 2 4 1010.6 1006.6 0.0
24/05:30am 16.2 17.7 15.7 97 0.3 SE 2 6 1 3 1010.6 1006.6 0.0
24/05:00am 16.3 18.0 15.2 93 0.7 CALM 0 0 0 0 1010.4 1006.4 0.0
24/04:30am 16.8 17.6 15.8 94 0.6 SSE 6 9 3 5 1010.1 1006.2 0.0
24/04:00am 17.5 17.8 16.0 91 0.9 SE 9 11 5 6 1010.1 1006.2 0.0
24/03:30am 17.2 18.7 15.7 91 0.9 SSW 2 9 1 5 1010.4 1006.4 0.0
24/03:00am 17.8 18.7 16.0 89 1.1 ENE 6 7 3 4 1010.4 1006.4 0.0
24/02:30am 18.0 18.7 16.2 89 1.1 ENE 7 9 4 5 1010.4 1006.4 0.0
24/02:00am 17.7 18.6 16.0 90 1.0 ENE 6 7 3 4 1010.5 1006.5 0.0
24/01:30am 18.5 18.8 15.9 85 1.6 ENE 9 11 5 6 1010.6 1006.6 0.0
24/01:00am 18.2 18.4 15.8 86 1.5 NE 9 11 5 6 1011.0 1007.1 0.0
24/12:30am 18.8 19.1 14.9 78 2.4 N 7 9 4 5 1011.1 1007.2 0.0
24/12:00am 19.2 20.0 14.7 75 2.7 NW 4 7 2 4 1011.1 1007.2 0.0
 
Date/Time
EDT
Temp
°C
App
Temp
°C
Dew
Point
Rel
Hum
%
Delta-T
°C
Wind Press
QNH
hPa
Press
MSL
hPa
Rain
since 9 am
mm
Dir
 
Spd
km/h
Gust
km/h
Spd
kts
Gust
kts
23/11:30pm 21.0 22.7 15.1 69 3.6 CALM 0 0 0 0 1011.3 1007.4 0.0
23/11:00pm 21.2 21.9 14.6 66 4.0 NNW 4 7 2 4 1011.3 1007.4 0.0
23/10:30pm 21.8 23.3 14.7 64 4.3 CALM 0 0 0 0 1011.1 1007.2 0.0
23/10:00pm 22.0 23.2 14.9 64 4.3 E 2 7 1 4 1011.3 1007.4 0.0
23/09:30pm 21.2 21.0 14.6 66 4.0 NE 9 13 5 7 1011.0 1007.1 0.0
23/09:00pm 21.6 20.6 14.5 64 4.3 N 13 15 7 8 1010.6 1006.6 0.0
23/08:30pm 22.4 21.2 14.0 59 5.1 N 13 15 7 8 1010.5 1006.5 0.0
23/08:00pm 23.6 23.0 14.6 57 5.5 NNE 11 13 6 7 1010.1 1006.2 0.0
23/07:30pm 25.1 23.0 14.6 52 6.5 NE 19 22 10 12 1009.8 1005.9 0.0
23/07:00pm 26.2 24.2 15.6 52 6.7 ENE 20 24 11 13 1009.5 1005.6 0.0
23/06:30pm 26.4 24.5 15.1 49 7.0 NE 19 24 10 13 1009.2 1005.2 0.0
23/06:00pm 26.3 25.3 16.5 54 6.2 NE 17 20 9 11 1009.0 1005.0 0.0
23/05:30pm 25.9 23.7 15.9 54 6.3 NE 22 28 12 15 1009.0 1005.0 0.0
23/05:00pm 27.0 25.5 15.4 49 7.3 N 17 30 9 16 1008.9 1004.9 0.0
23/04:30pm 31.8 30.7 13.1 32 11.5 WNW 11 17 6 9 1008.7 1004.8 0.0
23/04:00pm 31.4 30.8 12.2 30 11.7 W 7 19 4 10 1008.9 1004.9 0.0
23/03:30pm 30.0 28.2 12.0 33 10.8 S 13 20 7 11 1009.3 1005.3 0.0

Other Formats:

Comma delimited format used in spreadsheet applications
http://www.bom.gov.au/fwo/IDN60801/IDN60801.94729.axf

JavaScript Object Notation format (JSON) in row-major order
http://www.bom.gov.au/fwo/IDN60801/IDN60801.94729.json